sensor_id;sensor_type;location;lat;lon;timestamp;pressure;altitude;pressure_sealevel;temperature;humidity
34145;BME280;20422;53.014;8.886;2022-10-31T00:00:26;101856.13;;;12.56;100.00
34145;BME280;20422;53.014;8.886;2022-10-31T00:02:53;101855.91;;;12.45;100.00
34145;BME280;20422;53.014;8.886;2022-10-31T00:05:19;101851.97;;;12.51;100.00
34145;BME280;20422;53.014;8.886;2022-10-31T00:07:46;101882.31;;;12.68;100.00
34145;BME280;20422;53.014;8.886;2022-10-31T00:10:11;101879.81;;;12.65;100.00
34145;BME280;20422;53.014;8.886;2022-10-31T00:12:37;101880.00;;;12.62;100.00
34145;BME280;20422;53.014;8.886;2022-10-31T00:15:03;101860.22;;;12.48;100.00
34145;BME280;20422;53.014;8.886;2022-10-31T00:17:29;101883.28;;;12.52;100.00
34145;BME280;20422;53.014;8.886;2022-10-31T00:19:55;101898.47;;;12.53;100.00
34145;BME280;20422;53.014;8.886;2022-10-31T00:22:23;101855.22;;;12.26;100.00
34145;BME280;20422;53.014;8.886;2022-10-31T00:24:48;101876.53;;;12.29;100.00
34145;BME280;20422;53.014;8.886;2022-10-31T00:27:14;101905.34;;;12.43;100.00
34145;BME280;20422;53.014;8.886;2022-10-31T00:29:41;101878.53;;;12.25;100.00
34145;BME280;20422;53.014;8.886;2022-10-31T00:32:08;101890.66;;;12.32;100.00
34145;BME280;20422;53.014;8.886;2022-10-31T00:34:35;101899.19;;;12.40;100.00
34145;BME280;20422;53.014;8.886;2022-10-31T00:37:01;101889.00;;;12.30;100.00
34145;BME280;20422;53.014;8.886;2022-10-31T00:39:28;101852.03;;;12.02;100.00
34145;BME280;20422;53.014;8.886;2022-10-31T00:41:54;101911.81;;;12.54;100.00
34145;BME280;20422;53.014;8.886;2022-10-31T00:44:21;101923.72;;;12.66;100.00
34145;BME280;20422;53.014;8.886;2022-10-31T00:46:47;101922.06;;;12.63;100.00
34145;BME280;20422;53.014;8.886;2022-10-31T00:49:14;101871.94;;;12.31;100.00
34145;BME280;20422;53.014;8.886;2022-10-31T00:51:41;101926.84;;;12.58;100.00
34145;BME280;20422;53.014;8.886;2022-10-31T00:54:07;101941.16;;;12.59;100.00
34145;BME280;20422;53.014;8.886;2022-10-31T00:56:34;101939.34;;;12.59;100.00
34145;BME280;20422;53.014;8.886;2022-10-31T00:59:00;101927.53;;;12.62;100.00
34145;BME280;20422;53.014;8.886;2022-10-31T01:01:27;101894.66;;;12.41;100.00
34145;BME280;20422;53.014;8.886;2022-10-31T01:03:54;101927.38;;;12.65;100.00
34145;BME280;20422;53.014;8.886;2022-10-31T01:06:20;101927.00;;;12.71;100.00
34145;BME280;20422;53.014;8.886;2022-10-31T01:08:47;101936.03;;;12.70;100.00
34145;BME280;20422;53.014;8.886;2022-10-31T01:11:21;101930.22;;;12.46;100.00
34145;BME280;20422;53.014;8.886;2022-10-31T01:13:51;101954.84;;;12.54;100.00
34145;BME280;20422;53.014;8.886;2022-10-31T01:16:18;101968.66;;;12.64;100.00
34145;BME280;20422;53.014;8.886;2022-10-31T01:18:45;101958.16;;;12.59;100.00
34145;BME280;20422;53.014;8.886;2022-10-31T01:21:18;101961.38;;;12.66;100.00
34145;BME280;20422;53.014;8.886;2022-10-31T01:23:45;101968.47;;;12.51;100.00
34145;BME280;20422;53.014;8.886;2022-10-31T01:26:21;101970.84;;;12.57;100.00
34145;BME280;20422;53.014;8.886;2022-10-31T01:29:03;101967.97;;;12.60;100.00
34145;BME280;20422;53.014;8.886;2022-10-31T01:31:31;101971.59;;;12.59;100.00
34145;BME280;20422;53.014;8.886;2022-10-31T01:33:58;101970.19;;;12.52;100.00
34145;BME280;20422;53.014;8.886;2022-10-31T01:36:28;101965.69;;;12.53;100.00
34145;BME280;20422;53.014;8.886;2022-10-31T01:38:57;101926.25;;;12.20;100.00
34145;BME280;20422;53.014;8.886;2022-10-31T01:41:27;101955.25;;;12.31;100.00
34145;BME280;20422;53.014;8.886;2022-10-31T01:43:59;101978.09;;;12.39;100.00
34145;BME280;20422;53.014;8.886;2022-10-31T01:46:37;101965.44;;;12.42;100.00
34145;BME280;20422;53.014;8.886;2022-10-31T01:49:11;101973.03;;;12.33;100.00
34145;BME280;20422;53.014;8.886;2022-10-31T01:51:41;101914.66;;;12.04;100.00
34145;BME280;20422;53.014;8.886;2022-10-31T01:54:14;101963.44;;;12.12;100.00
34145;BME280;20422;53.014;8.886;2022-10-31T01:56:46;101968.75;;;12.14;100.00
34145;BME280;20422;53.014;8.886;2022-10-31T01:59:17;101953.09;;;12.22;100.00
34145;BME280;20422;53.014;8.886;2022-10-31T02:01:47;101953.94;;;12.22;100.00
34145;BME280;20422;53.014;8.886;2022-10-31T02:04:14;101954.91;;;12.21;100.00
34145;BME280;20422;53.014;8.886;2022-10-31T02:06:48;101966.78;;;12.33;100.00
34145;BME280;20422;53.014;8.886;2022-10-31T02:09:17;101953.78;;;12.25;100.00
34145;BME280;20422;53.014;8.886;2022-10-31T02:11:51;101964.78;;;12.36;100.00
34145;BME280;20422;53.014;8.886;2022-10-31T02:14:21;101965.53;;;12.40;100.00
34145;BME280;20422;53.014;8.886;2022-10-31T02:16:48;101964.09;;;12.33;100.00
34145;BME280;20422;53.014;8.886;2022-10-31T02:19:30;101977.44;;;12.34;100.00
34145;BME280;20422;53.014;8.886;2022-10-31T02:31:03;101979.53;;;12.29;100.00
34145;BME280;20422;53.014;8.886;2022-10-31T02:33:50;101979.53;;;12.29;100.00
34145;BME280;20422;53.014;8.886;2022-10-31T02:36:39;101982.47;;;12.25;100.00
34145;BME280;20422;53.014;8.886;2022-10-31T02:42:09;101991.56;;;12.22;100.00
34145;BME280;20422;53.014;8.886;2022-10-31T02:44:54;101995.28;;;12.20;100.00
34145;BME280;20422;53.014;8.886;2022-10-31T02:47:25;101989.03;;;12.19;100.00
34145;BME280;20422;53.014;8.886;2022-10-31T02:50:16;101982.69;;;12.04;100.00
34145;BME280;20422;53.014;8.886;2022-10-31T02:52:44;101979.13;;;12.04;100.00
34145;BME280;20422;53.014;8.886;2022-10-31T02:58:15;101988.00;;;11.89;100.00
34145;BME280;20422;53.014;8.886;2022-10-31T03:03:57;101965.94;;;11.82;100.00
34145;BME280;20422;53.014;8.886;2022-10-31T03:06:59;101991.72;;;11.86;100.00
34145;BME280;20422;53.014;8.886;2022-10-31T03:15:27;102008.75;;;11.68;100.00
34145;BME280;20422;53.014;8.886;2022-10-31T03:20:56;101987.81;;;11.57;100.00
34145;BME280;20422;53.014;8.886;2022-10-31T03:23:27;102006.75;;;11.54;100.00
34145;BME280;20422;53.014;8.886;2022-10-31T03:25:54;101994.03;;;11.40;100.00
34145;BME280;20422;53.014;8.886;2022-10-31T03:28:27;102008.16;;;11.44;100.00
34145;BME280;20422;53.014;8.886;2022-10-31T03:30:54;101965.00;;;11.12;100.00
34145;BME280;20422;53.014;8.886;2022-10-31T03:33:24;101977.50;;;11.13;100.00
34145;BME280;20422;53.014;8.886;2022-10-31T03:35:55;102012.78;;;11.23;100.00
34145;BME280;20422;53.014;8.886;2022-10-31T03:38:23;102020.75;;;11.25;100.00
34145;BME280;20422;53.014;8.886;2022-10-31T03:40:51;102007.44;;;11.04;100.00
34145;BME280;20422;53.014;8.886;2022-10-31T03:43:28;101991.94;;;10.92;100.00
34145;BME280;20422;53.014;8.886;2022-10-31T03:45:57;102004.13;;;10.99;100.00
34145;BME280;20422;53.014;8.886;2022-10-31T03:48:24;102035.63;;;11.32;100.00
34145;BME280;20422;53.014;8.886;2022-10-31T03:53:45;102040.72;;;11.19;100.00
34145;BME280;20422;53.014;8.886;2022-10-31T03:56:36;102032.78;;;10.99;100.00
34145;BME280;20422;53.014;8.886;2022-10-31T03:59:10;102040.97;;;10.96;100.00
34145;BME280;20422;53.014;8.886;2022-10-31T04:01:44;102029.66;;;10.89;100.00
34145;BME280;20422;53.014;8.886;2022-10-31T04:04:14;102044.00;;;10.88;100.00
34145;BME280;20422;53.014;8.886;2022-10-31T04:06:42;101984.59;;;10.59;100.00
34145;BME280;20422;53.014;8.886;2022-10-31T04:09:10;102034.28;;;11.04;100.00
34145;BME280;20422;53.014;8.886;2022-10-31T04:11:41;102023.63;;;10.84;100.00
34145;BME280;20422;53.014;8.886;2022-10-31T04:14:08;102026.88;;;10.72;100.00
34145;BME280;20422;53.014;8.886;2022-10-31T04:16:41;102058.19;;;10.90;100.00
34145;BME280;20422;53.014;8.886;2022-10-31T04:19:10;102042.25;;;10.87;100.00
34145;BME280;20422;53.014;8.886;2022-10-31T04:21:37;102047.25;;;10.95;100.00
34145;BME280;20422;53.014;8.886;2022-10-31T04:24:04;102065.75;;;11.01;100.00
34145;BME280;20422;53.014;8.886;2022-10-31T04:26:30;102011.03;;;10.67;100.00
34145;BME280;20422;53.014;8.886;2022-10-31T04:28:57;102024.22;;;10.72;100.00
34145;BME280;20422;53.014;8.886;2022-10-31T04:31:24;101999.13;;;10.54;100.00
34145;BME280;20422;53.014;8.886;2022-10-31T04:33:50;102035.31;;;10.83;100.00
34145;BME280;20422;53.014;8.886;2022-10-31T04:36:17;102058.81;;;10.97;100.00
34145;BME280;20422;53.014;8.886;2022-10-31T04:38:44;102048.06;;;10.97;100.00
34145;BME280;20422;53.014;8.886;2022-10-31T04:41:10;102047.78;;;10.84;100.00
34145;BME280;20422;53.014;8.886;2022-10-31T04:43:37;102048.94;;;10.78;100.00
34145;BME280;20422;53.014;8.886;2022-10-31T04:46:03;102048.50;;;10.69;100.00
34145;BME280;20422;53.014;8.886;2022-10-31T04:48:30;102057.25;;;10.72;100.00
34145;BME280;20422;53.014;8.886;2022-10-31T04:51:02;102057.41;;;10.69;100.00
34145;BME280;20422;53.014;8.886;2022-10-31T04:53:29;102046.38;;;10.56;100.00
34145;BME280;20422;53.014;8.886;2022-10-31T04:56:00;102056.59;;;10.67;100.00
34145;BME280;20422;53.014;8.886;2022-10-31T04:58:27;102058.19;;;10.71;100.00
34145;BME280;20422;53.014;8.886;2022-10-31T05:00:55;102043.91;;;10.71;100.00
34145;BME280;20422;53.014;8.886;2022-10-31T05:03:22;102030.97;;;10.62;100.00
34145;BME280;20422;53.014;8.886;2022-10-31T05:05:49;102038.31;;;10.56;100.00
34145;BME280;20422;53.014;8.886;2022-10-31T05:08:15;102051.53;;;10.61;100.00
34145;BME280;20422;53.014;8.886;2022-10-31T05:10:42;102018.25;;;10.46;100.00
34145;BME280;20422;53.014;8.886;2022-10-31T05:13:09;102061.03;;;10.68;100.00
34145;BME280;20422;53.014;8.886;2022-10-31T05:15:37;102042.09;;;10.71;100.00
34145;BME280;20422;53.014;8.886;2022-10-31T05:18:03;102007.91;;;10.57;100.00
34145;BME280;20422;53.014;8.886;2022-10-31T05:20:30;102038.22;;;10.78;100.00
34145;BME280;20422;53.014;8.886;2022-10-31T05:22:58;101984.72;;;10.56;100.00
34145;BME280;20422;53.014;8.886;2022-10-31T05:25:27;102015.94;;;10.76;100.00
34145;BME280;20422;53.014;8.886;2022-10-31T05:27:55;102025.00;;;10.55;100.00
34145;BME280;20422;53.014;8.886;2022-10-31T05:30:27;102045.78;;;10.50;100.00
34145;BME280;20422;53.014;8.886;2022-10-31T05:32:55;102045.13;;;10.45;100.00
34145;BME280;20422;53.014;8.886;2022-10-31T05:35:27;102049.00;;;10.38;100.00
34145;BME280;20422;53.014;8.886;2022-10-31T05:37:54;102047.41;;;10.34;100.00
34145;BME280;20422;53.014;8.886;2022-10-31T05:40:21;102032.06;;;10.17;100.00
34145;BME280;20422;53.014;8.886;2022-10-31T05:42:47;102047.13;;;10.19;100.00
34145;BME280;20422;53.014;8.886;2022-10-31T05:45:16;102045.66;;;10.12;100.00
34145;BME280;20422;53.014;8.886;2022-10-31T05:47:49;102040.38;;;10.11;100.00
34145;BME280;20422;53.014;8.886;2022-10-31T05:50:27;102057.47;;;10.08;100.00
34145;BME280;20422;53.014;8.886;2022-10-31T05:53:04;102051.56;;;10.00;100.00
34145;BME280;20422;53.014;8.886;2022-10-31T05:55:31;102036.16;;;9.85;100.00
34145;BME280;20422;53.014;8.886;2022-10-31T05:58:01;102051.16;;;9.89;100.00
34145;BME280;20422;53.014;8.886;2022-10-31T06:00:28;102062.53;;;9.94;100.00
34145;BME280;20422;53.014;8.886;2022-10-31T06:03:03;102059.88;;;9.94;100.00
34145;BME280;20422;53.014;8.886;2022-10-31T06:05:30;102038.81;;;9.85;100.00
34145;BME280;20422;53.014;8.886;2022-10-31T06:07:57;102057.31;;;9.91;100.00
34145;BME280;20422;53.014;8.886;2022-10-31T06:10:24;102053.00;;;9.87;100.00
34145;BME280;20422;53.014;8.886;2022-10-31T06:12:50;102069.84;;;9.90;100.00
34145;BME280;20422;53.014;8.886;2022-10-31T06:15:17;102028.75;;;9.71;100.00
34145;BME280;20422;53.014;8.886;2022-10-31T06:17:43;102062.81;;;9.88;100.00
34145;BME280;20422;53.014;8.886;2022-10-31T06:20:11;102067.69;;;9.98;100.00
34145;BME280;20422;53.014;8.886;2022-10-31T06:22:37;102058.44;;;9.85;100.00
34145;BME280;20422;53.014;8.886;2022-10-31T06:25:04;102059.31;;;9.86;100.00
34145;BME280;20422;53.014;8.886;2022-10-31T06:27:31;102080.56;;;9.90;100.00
34145;BME280;20422;53.014;8.886;2022-10-31T06:29:58;102081.59;;;9.86;100.00
34145;BME280;20422;53.014;8.886;2022-10-31T06:32:24;102071.09;;;9.82;100.00
34145;BME280;20422;53.014;8.886;2022-10-31T06:34:51;102066.88;;;9.76;100.00
34145;BME280;20422;53.014;8.886;2022-10-31T06:37:17;102052.94;;;9.68;100.00
34145;BME280;20422;53.014;8.886;2022-10-31T06:39:44;102056.44;;;9.70;100.00
34145;BME280;20422;53.014;8.886;2022-10-31T06:42:11;102046.84;;;9.64;100.00
34145;BME280;20422;53.014;8.886;2022-10-31T06:44:37;102084.25;;;9.88;100.00
34145;BME280;20422;53.014;8.886;2022-10-31T06:47:05;102088.38;;;9.95;100.00
34145;BME280;20422;53.014;8.886;2022-10-31T06:49:31;102076.53;;;10.00;100.00
34145;BME280;20422;53.014;8.886;2022-10-31T06:51:58;102073.78;;;10.02;100.00
34145;BME280;20422;53.014;8.886;2022-10-31T06:54:24;102092.00;;;10.14;100.00
34145;BME280;20422;53.014;8.886;2022-10-31T06:56:51;102069.03;;;10.09;100.00
34145;BME280;20422;53.014;8.886;2022-10-31T06:59:17;102075.00;;;10.15;100.00
34145;BME280;20422;53.014;8.886;2022-10-31T07:01:44;102101.81;;;10.36;100.00
34145;BME280;20422;53.014;8.886;2022-10-31T07:04:11;102060.41;;;10.22;100.00
34145;BME280;20422;53.014;8.886;2022-10-31T07:06:38;102064.91;;;10.22;100.00
34145;BME280;20422;53.014;8.886;2022-10-31T07:09:04;102116.34;;;10.50;100.00
34145;BME280;20422;53.014;8.886;2022-10-31T07:11:32;102117.06;;;10.54;100.00
34145;BME280;20422;53.014;8.886;2022-10-31T07:13:59;102090.00;;;10.40;100.00
34145;BME280;20422;53.014;8.886;2022-10-31T07:16:25;102069.13;;;10.27;100.00
34145;BME280;20422;53.014;8.886;2022-10-31T07:18:52;102101.34;;;10.46;100.00
34145;BME280;20422;53.014;8.886;2022-10-31T07:21:18;102103.56;;;10.37;100.00
34145;BME280;20422;53.014;8.886;2022-10-31T07:23:48;102117.63;;;10.42;100.00
34145;BME280;20422;53.014;8.886;2022-10-31T07:26:15;102115.81;;;10.42;100.00
34145;BME280;20422;53.014;8.886;2022-10-31T07:28:41;102089.22;;;10.38;100.00
34145;BME280;20422;53.014;8.886;2022-10-31T07:31:08;102119.31;;;10.44;100.00
34145;BME280;20422;53.014;8.886;2022-10-31T07:33:35;102090.81;;;10.21;100.00
34145;BME280;20422;53.014;8.886;2022-10-31T07:36:02;102085.63;;;10.17;100.00
34145;BME280;20422;53.014;8.886;2022-10-31T07:38:28;102099.19;;;10.34;100.00
34145;BME280;20422;53.014;8.886;2022-10-31T07:40:55;102110.13;;;10.50;100.00
34145;BME280;20422;53.014;8.886;2022-10-31T07:43:22;102091.72;;;10.42;100.00
34145;BME280;20422;53.014;8.886;2022-10-31T07:45:54;102103.88;;;10.49;100.00
34145;BME280;20422;53.014;8.886;2022-10-31T07:48:19;102086.34;;;10.42;100.00
34145;BME280;20422;53.014;8.886;2022-10-31T07:50:46;102117.78;;;10.57;100.00
34145;BME280;20422;53.014;8.886;2022-10-31T07:53:13;102113.31;;;10.58;100.00
34145;BME280;20422;53.014;8.886;2022-10-31T07:55:41;102117.63;;;10.62;100.00
34145;BME280;20422;53.014;8.886;2022-10-31T07:58:15;102125.16;;;10.73;100.00
34145;BME280;20422;53.014;8.886;2022-10-31T08:00:43;102116.25;;;10.72;100.00
34145;BME280;20422;53.014;8.886;2022-10-31T08:03:13;102124.88;;;10.79;100.00
34145;BME280;20422;53.014;8.886;2022-10-31T08:05:41;102127.13;;;10.88;100.00
34145;BME280;20422;53.014;8.886;2022-10-31T08:08:08;102128.16;;;11.04;100.00
34145;BME280;20422;53.014;8.886;2022-10-31T08:10:35;102107.88;;;11.17;100.00
34145;BME280;20422;53.014;8.886;2022-10-31T08:13:08;102113.06;;;11.39;100.00
34145;BME280;20422;53.014;8.886;2022-10-31T08:15:35;102107.44;;;11.63;100.00
34145;BME280;20422;53.014;8.886;2022-10-31T08:18:14;102096.03;;;11.76;100.00
34145;BME280;20422;53.014;8.886;2022-10-31T08:20:46;102116.28;;;11.84;100.00
34145;BME280;20422;53.014;8.886;2022-10-31T08:23:13;102083.63;;;11.74;100.00
34145;BME280;20422;53.014;8.886;2022-10-31T08:25:41;102109.25;;;11.98;100.00
34145;BME280;20422;53.014;8.886;2022-10-31T08:28:10;102126.50;;;12.12;100.00
34145;BME280;20422;53.014;8.886;2022-10-31T08:30:38;102116.06;;;12.23;100.00
34145;BME280;20422;53.014;8.886;2022-10-31T08:33:13;102105.25;;;11.90;100.00
34145;BME280;20422;53.014;8.886;2022-10-31T08:35:40;102100.09;;;11.66;100.00
34145;BME280;20422;53.014;8.886;2022-10-31T08:38:06;102085.91;;;11.45;100.00
34145;BME280;20422;53.014;8.886;2022-10-31T08:40:34;102090.81;;;11.37;100.00
34145;BME280;20422;53.014;8.886;2022-10-31T08:43:14;102090.94;;;11.53;100.00
34145;BME280;20422;53.014;8.886;2022-10-31T08:45:42;102113.75;;;11.62;100.00
34145;BME280;20422;53.014;8.886;2022-10-31T08:48:16;102114.63;;;11.81;100.00
34145;BME280;20422;53.014;8.886;2022-10-31T08:50:44;102119.69;;;11.87;100.00
34145;BME280;20422;53.014;8.886;2022-10-31T08:53:15;102086.38;;;11.72;100.00
34145;BME280;20422;53.014;8.886;2022-10-31T08:55:43;102111.72;;;12.03;100.00
34145;BME280;20422;53.014;8.886;2022-10-31T08:58:13;102098.94;;;11.72;100.00
34145;BME280;20422;53.014;8.886;2022-10-31T09:00:39;102105.19;;;11.72;100.00
34145;BME280;20422;53.014;8.886;2022-10-31T09:03:08;102112.13;;;11.76;100.00
34145;BME280;20422;53.014;8.886;2022-10-31T09:05:34;102071.34;;;11.51;100.00
34145;BME280;20422;53.014;8.886;2022-10-31T09:08:01;102071.97;;;11.56;100.00
34145;BME280;20422;53.014;8.886;2022-10-31T09:10:28;102104.22;;;11.92;100.00
34145;BME280;20422;53.014;8.886;2022-10-31T09:12:58;102074.06;;;11.68;100.00
34145;BME280;20422;53.014;8.886;2022-10-31T09:15:24;102115.19;;;11.88;100.00
34145;BME280;20422;53.014;8.886;2022-10-31T09:17:50;102109.59;;;11.92;100.00
34145;BME280;20422;53.014;8.886;2022-10-31T09:20:15;102102.50;;;11.72;100.00
34145;BME280;20422;53.014;8.886;2022-10-31T09:22:41;102079.81;;;11.61;100.00
34145;BME280;20422;53.014;8.886;2022-10-31T09:25:07;102089.75;;;11.59;100.00
34145;BME280;20422;53.014;8.886;2022-10-31T09:27:32;102104.19;;;11.56;100.00
34145;BME280;20422;53.014;8.886;2022-10-31T09:29:57;102095.72;;;11.46;100.00
34145;BME280;20422;53.014;8.886;2022-10-31T09:32:23;102103.50;;;11.53;100.00
34145;BME280;20422;53.014;8.886;2022-10-31T09:34:48;102063.56;;;11.45;100.00
34145;BME280;20422;53.014;8.886;2022-10-31T09:37:13;102045.25;;;11.36;100.00
34145;BME280;20422;53.014;8.886;2022-10-31T09:39:38;102066.25;;;11.45;100.00
34145;BME280;20422;53.014;8.886;2022-10-31T09:42:33;102096.31;;;11.53;100.00
34145;BME280;20422;53.014;8.886;2022-10-31T09:50:51;102053.88;;;11.42;100.00
34145;BME280;20422;53.014;8.886;2022-10-31T09:56:11;102075.47;;;11.58;100.00
34145;BME280;20422;53.014;8.886;2022-10-31T09:58:44;102073.88;;;11.54;100.00
34145;BME280;20422;53.014;8.886;2022-10-31T10:01:21;102075.34;;;11.78;100.00
34145;BME280;20422;53.014;8.886;2022-10-31T10:03:51;102020.50;;;11.65;100.00
34145;BME280;20422;53.014;8.886;2022-10-31T10:06:21;102080.91;;;12.10;100.00
34145;BME280;20422;53.014;8.886;2022-10-31T10:08:48;102068.88;;;12.17;100.00
34145;BME280;20422;53.014;8.886;2022-10-31T10:17:01;102079.41;;;12.55;100.00
34145;BME280;20422;53.014;8.886;2022-10-31T10:22:37;102075.72;;;12.57;100.00
34145;BME280;20422;53.014;8.886;2022-10-31T10:27:49;102072.72;;;12.95;100.00
34145;BME280;20422;53.014;8.886;2022-10-31T10:30:20;102047.91;;;13.06;100.00
34145;BME280;20422;53.014;8.886;2022-10-31T10:32:52;102078.41;;;13.22;100.00
34145;BME280;20422;53.014;8.886;2022-10-31T10:38:01;102087.09;;;13.27;100.00
34145;BME280;20422;53.014;8.886;2022-10-31T10:40:28;102081.88;;;13.24;100.00
34145;BME280;20422;53.014;8.886;2022-10-31T10:45:52;102066.13;;;13.16;100.00
34145;BME280;20422;53.014;8.886;2022-10-31T10:49:10;102082.50;;;13.29;100.00
34145;BME280;20422;53.014;8.886;2022-10-31T10:51:44;102085.06;;;13.46;100.00
34145;BME280;20422;53.014;8.886;2022-10-31T10:54:35;102084.72;;;13.68;100.00
34145;BME280;20422;53.014;8.886;2022-10-31T10:59:39;102072.84;;;13.86;100.00
34145;BME280;20422;53.014;8.886;2022-10-31T11:02:20;102086.59;;;14.12;100.00
34145;BME280;20422;53.014;8.886;2022-10-31T11:04:50;102065.75;;;14.00;100.00
34145;BME280;20422;53.014;8.886;2022-10-31T11:07:17;102083.47;;;13.74;100.00
34145;BME280;20422;53.014;8.886;2022-10-31T11:09:43;102015.50;;;13.54;100.00
34145;BME280;20422;53.014;8.886;2022-10-31T11:12:24;102038.69;;;13.57;100.00
34145;BME280;20422;53.014;8.886;2022-10-31T11:14:54;102062.88;;;13.73;100.00
34145;BME280;20422;53.014;8.886;2022-10-31T11:17:40;102030.28;;;13.47;100.00
34145;BME280;20422;53.014;8.886;2022-10-31T11:20:33;102061.66;;;13.78;100.00
34145;BME280;20422;53.014;8.886;2022-10-31T11:23:20;102063.66;;;13.75;100.00
34145;BME280;20422;53.014;8.886;2022-10-31T11:26:04;102063.53;;;13.46;100.00
34145;BME280;20422;53.014;8.886;2022-10-31T11:28:31;102051.97;;;13.44;100.00
34145;BME280;20422;53.014;8.886;2022-10-31T11:31:05;102058.41;;;13.42;100.00
34145;BME280;20422;53.014;8.886;2022-10-31T11:33:47;102052.41;;;13.52;100.00
34145;BME280;20422;53.014;8.886;2022-10-31T11:36:23;102047.13;;;13.51;100.00
34145;BME280;20422;53.014;8.886;2022-10-31T11:38:50;102004.44;;;13.29;100.00
34145;BME280;20422;53.014;8.886;2022-10-31T11:41:28;102045.22;;;13.53;100.00
34145;BME280;20422;53.014;8.886;2022-10-31T11:44:04;102039.81;;;13.53;100.00
34145;BME280;20422;53.014;8.886;2022-10-31T11:46:41;102040.13;;;13.63;100.00
34145;BME280;20422;53.014;8.886;2022-10-31T11:52:01;102039.34;;;13.60;100.00
34145;BME280;20422;53.014;8.886;2022-10-31T11:54:30;102026.19;;;13.40;100.00
34145;BME280;20422;53.014;8.886;2022-10-31T11:56:58;102018.66;;;13.31;100.00
34145;BME280;20422;53.014;8.886;2022-10-31T11:59:26;101985.22;;;13.04;100.00
34145;BME280;20422;53.014;8.886;2022-10-31T12:01:53;102013.97;;;13.19;100.00
34145;BME280;20422;53.014;8.886;2022-10-31T12:04:46;101996.16;;;13.16;100.00
34145;BME280;20422;53.014;8.886;2022-10-31T12:07:09;102012.78;;;13.54;100.00
34145;BME280;20422;53.014;8.886;2022-10-31T12:09:36;102013.56;;;13.86;100.00
34145;BME280;20422;53.014;8.886;2022-10-31T12:23:08;102006.28;;;14.17;100.00
34145;BME280;20422;53.014;8.886;2022-10-31T12:25:40;102016.63;;;14.25;100.00
34145;BME280;20422;53.014;8.886;2022-10-31T12:31:08;101964.75;;;13.77;100.00
34145;BME280;20422;53.014;8.886;2022-10-31T12:33:45;101988.25;;;13.89;100.00
34145;BME280;20422;53.014;8.886;2022-10-31T12:39:21;101975.66;;;13.89;100.00
34145;BME280;20422;53.014;8.886;2022-10-31T12:42:03;101979.03;;;13.93;100.00
34145;BME280;20422;53.014;8.886;2022-10-31T12:45:06;101989.50;;;13.98;100.00
34145;BME280;20422;53.014;8.886;2022-10-31T13:01:51;101953.34;;;13.27;100.00
34145;BME280;20422;53.014;8.886;2022-10-31T13:04:30;101958.28;;;13.35;100.00
34145;BME280;20422;53.014;8.886;2022-10-31T13:07:03;101891.53;;;13.10;100.00
34145;BME280;20422;53.014;8.886;2022-10-31T13:09:32;101939.66;;;13.46;100.00
34145;BME280;20422;53.014;8.886;2022-10-31T13:12:12;101920.81;;;13.46;100.00
34145;BME280;20422;53.014;8.886;2022-10-31T13:14:50;101932.97;;;13.53;100.00
34145;BME280;20422;53.014;8.886;2022-10-31T13:17:29;101894.16;;;13.12;100.00
34145;BME280;20422;53.014;8.886;2022-10-31T13:20:11;101912.28;;;13.24;100.00
34145;BME280;20422;53.014;8.886;2022-10-31T13:22:41;101885.06;;;12.98;100.00
34145;BME280;20422;53.014;8.886;2022-10-31T13:25:15;101889.88;;;13.08;100.00
34145;BME280;20422;53.014;8.886;2022-10-31T13:28:09;101833.06;;;12.98;100.00
34145;BME280;20422;53.014;8.886;2022-10-31T13:30:40;101863.25;;;13.03;100.00
34145;BME280;20422;53.014;8.886;2022-10-31T13:33:15;101926.50;;;13.26;100.00
34145;BME280;20422;53.014;8.886;2022-10-31T13:35:51;101935.22;;;13.31;100.00
34145;BME280;20422;53.014;8.886;2022-10-31T13:38:37;101904.88;;;13.27;100.00
34145;BME280;20422;53.014;8.886;2022-10-31T13:43:58;101864.34;;;13.30;100.00
34145;BME280;20422;53.014;8.886;2022-10-31T13:46:45;101857.00;;;13.18;100.00
34145;BME280;20422;53.014;8.886;2022-10-31T13:49:25;101842.78;;;13.00;100.00
34145;BME280;20422;53.014;8.886;2022-10-31T13:51:51;101837.91;;;13.07;100.00
34145;BME280;20422;53.014;8.886;2022-10-31T13:57:35;101849.38;;;13.11;100.00
34145;BME280;20422;53.014;8.886;2022-10-31T14:02:48;101837.34;;;13.16;100.00
34145;BME280;20422;53.014;8.886;2022-10-31T14:07:55;101817.22;;;13.08;100.00
34145;BME280;20422;53.014;8.886;2022-10-31T14:10:28;101838.84;;;13.22;100.00
34145;BME280;20422;53.014;8.886;2022-10-31T14:13:04;101832.06;;;13.15;100.00
34145;BME280;20422;53.014;8.886;2022-10-31T14:15:31;101821.50;;;13.12;100.00
34145;BME280;20422;53.014;8.886;2022-10-31T14:18:06;101804.72;;;13.07;100.00
34145;BME280;20422;53.014;8.886;2022-10-31T14:20:44;101763.41;;;12.93;100.00
34145;BME280;20422;53.014;8.886;2022-10-31T14:28:44;101756.97;;;13.10;100.00
34145;BME280;20422;53.014;8.886;2022-10-31T14:31:37;101753.16;;;13.14;100.00
34145;BME280;20422;53.014;8.886;2022-10-31T14:34:27;101741.53;;;13.14;100.00
34145;BME280;20422;53.014;8.886;2022-10-31T14:40:06;101753.75;;;13.19;100.00
34145;BME280;20422;53.014;8.886;2022-10-31T14:49:03;101773.97;;;13.41;100.00
34145;BME280;20422;53.014;8.886;2022-10-31T14:51:38;101774.72;;;13.43;100.00
34145;BME280;20422;53.014;8.886;2022-10-31T14:54:06;101767.72;;;13.40;100.00
34145;BME280;20422;53.014;8.886;2022-10-31T14:56:37;101766.44;;;13.46;100.00